Accueil
METAR-TAF:

METAR-TAF

Aéroports :

NWS Office

Ponape, Micronésie

latitude: 06-58N, longitude: 158-13E, altitude: 39 m

Observation

Le bulletin a été fait il y a 57 minutes, à 09:53 UTC
Vent 3 kt de sud-est
Température 25°C
Humidité 94%
Pression 1011 hPa
Visibilité: 24.1 km
Nuages épars à une hauteur de 1800 ft
Ciel couvert à une hauteur de 12000 ft
pluie faible

METAR: PTTP 220953Z 14003KT 15SM -RA SCT018 OVC120 25/24 A2986 RMK RAB38 SLP112 T02460239

Heure: 21:50 (10:50 UTC)


TAF: absent

Observations et prévisions météorologiques de plus de 4000 aéroports (messages METAR et TAF).

Les stations disponibles sont représentées par des disques jaunes et rouges sur la carte.

Passer la souris dessus pour voir le nom de la station.

Cliquer dessus pour voir les observations et prévisions météorologiques.

Pour changer de carte: cliquez sur les boutons verts avec une croix noire pour zoomer, sur le bouton vert avec un tiret pour effectuer un zoom arrière, ou sur les flèches vertes pour les cartes adjacentes.


METAR-TAF: